»·PEaware :: N4974G KRIV-KSBA

N4974G :: KRIV-KSBA

FLIGHT INFORMATION

Flight Status: Arrived
Operator: Privately registered:
United States
More flights under this callsign
Pilot: Matias H. (30067)
Aircraft: PIPER PA-28R-201 ARROW
(P28R)
More flights by this aircraft type
Origin: KRIV March ARB
United States
Destination: KSBA Santa Barbara Mun
United States
More flights between these airports :: More routes between these airports
Route: +PDZ V186 DEANO V27 KWANG
File this flight plan on PilotEdge
Remarks: TEC route ONTP16
Altitude:
(Current/Filed)
8,000ft
Speed:
(Current/Filed)
130kts
Departed: 31-Jul-20 04:27 PM
Arrived: 31-Jul-20 05:35 PM
Distance/Time
Traveled:
132nm/1:08
Distance/Time
To Go:
Arrived

Flight Plot

Page will automatically refresh every two minutes.


Map Options




Map Legend


Flown Route
Filed Route
Departure Airport
Arrival Airport
Navaid (VOR, NDB)
Fix

Horizontal Profiles

Position Reports

Time Latitude Longitude Heading Altitude Ground
Speed
31-Jul-20 16:04 33.887031 -117.250059 316 1502ft 0kts
31-Jul-20 16:05 33.887031 -117.250059 316 1502ft 0kts
31-Jul-20 16:06 33.887031 -117.250059 316 1502ft 0kts
31-Jul-20 16:07 33.887031 -117.250059 316 1502ft 0kts
31-Jul-20 16:08 33.887031 -117.250059 316 1502ft 0kts
31-Jul-20 16:09 33.887031 -117.250059 316 1502ft 0kts
31-Jul-20 16:10 33.887031 -117.250059 316 1502ft 0kts
31-Jul-20 16:11 33.887031 -117.250059 316 1502ft 0kts
31-Jul-20 16:12 33.887031 -117.250059 316 1502ft 0kts
31-Jul-20 16:13 33.887031 -117.250059 316 1502ft 0kts
31-Jul-20 16:14 33.887031 -117.250059 316 1502ft 0kts
31-Jul-20 16:15 33.887031 -117.250059 316 1502ft 0kts
31-Jul-20 16:16 33.887031 -117.250059 316 1502ft 0kts
31-Jul-20 16:17 33.887031 -117.250059 316 1502ft 0kts
31-Jul-20 16:18 33.887031 -117.250059 316 1502ft 0kts
31-Jul-20 16:19 33.887031 -117.250059 316 1502ft 0kts
31-Jul-20 16:20 33.887031 -117.250059 316 1502ft 0kts
31-Jul-20 16:21 33.886448 -117.251021 224 1503ft 18kts
31-Jul-20 16:22 33.884559 -117.252616 209 1502ft 0kts
31-Jul-20 16:23 33.884559 -117.252616 209 1502ft 0kts
31-Jul-20 16:24 33.884559 -117.252616 209 1502ft 0kts
31-Jul-20 16:25 33.884481 -117.252670 210 1502ft 7kts
31-Jul-20 16:26 33.891332 -117.261391 318 1676ft 77kts
31-Jul-20 16:27 33.907055 -117.278755 310 2577ft 79kts
31-Jul-20 16:28 33.922976 -117.297029 314 3491ft 80kts
31-Jul-20 16:29 33.939490 -117.315327 314 4345ft 82kts
31-Jul-20 16:30 33.955060 -117.334912 276 5130ft 81kts
31-Jul-20 16:31 33.952394 -117.361473 260 5899ft 80kts
31-Jul-20 16:32 33.946790 -117.394086 261 6059ft 120kts
31-Jul-20 16:33 33.938995 -117.435686 255 5996ft 127kts
31-Jul-20 16:34 33.929529 -117.476227 256 5994ft 125kts
31-Jul-20 16:35 33.920278 -117.516145 256 5992ft 122kts
31-Jul-20 16:36 33.925669 -117.554380 293 5990ft 122kts
31-Jul-20 16:37 33.939822 -117.591415 291 5990ft 121kts
31-Jul-20 16:38 33.953300 -117.628830 291 5992ft 121kts
31-Jul-20 16:39 33.966558 -117.666247 290 5998ft 121kts
31-Jul-20 16:40 33.979834 -117.703885 290 6002ft 122kts
31-Jul-20 16:41 33.993124 -117.741651 290 6006ft 122kts
31-Jul-20 16:42 34.005676 -117.779806 288 6011ft 122kts
31-Jul-20 16:43 34.017673 -117.818385 288 6016ft 123kts
31-Jul-20 16:44 34.029645 -117.857051 287 6020ft 123kts
31-Jul-20 16:45 34.041702 -117.896067 287 6019ft 124kts
31-Jul-20 16:46 34.053787 -117.935266 286 6017ft 125kts
31-Jul-20 16:47 34.065965 -117.974834 285 6015ft 126kts
31-Jul-20 16:48 34.078258 -118.014831 285 6011ft 128kts
31-Jul-20 16:49 34.090752 -118.055550 284 6005ft 130kts
31-Jul-20 16:50 34.103437 -118.096926 284 5998ft 131kts
31-Jul-20 16:51 34.116081 -118.138148 284 6000ft 130kts
31-Jul-20 16:52 34.128626 -118.179199 284 6029ft 130kts
31-Jul-20 16:53 34.141203 -118.220407 284 6030ft 131kts
31-Jul-20 16:54 34.153842 -118.261857 284 6032ft 131kts
31-Jul-20 16:55 34.166523 -118.303502 284 6033ft 131kts
31-Jul-20 16:56 34.179174 -118.345092 284 6033ft 132kts
31-Jul-20 16:57 34.191884 -118.386953 284 6032ft 133kts
31-Jul-20 16:58 34.204825 -118.429641 284 6030ft 135kts
31-Jul-20 16:59 34.217826 -118.472597 284 6029ft 137kts
31-Jul-20 17:00 34.232052 -118.516198 287 6027ft 140kts
31-Jul-20 17:01 34.247126 -118.560156 287 6028ft 142kts
31-Jul-20 17:02 34.262396 -118.604644 287 6035ft 142kts
31-Jul-20 17:03 34.277253 -118.647931 287 6039ft 134kts
31-Jul-20 17:04 34.288023 -118.689022 262 6044ft 126kts
31-Jul-20 17:05 34.285223 -118.731154 262 6044ft 125kts
31-Jul-20 17:06 34.282119 -118.772949 262 6045ft 124kts
31-Jul-20 17:07 34.278727 -118.814505 262 6045ft 124kts
31-Jul-20 17:08 34.275247 -118.856021 262 6045ft 124kts
31-Jul-20 17:09 34.271781 -118.897443 262 6045ft 124kts
31-Jul-20 17:10 34.268300 -118.939058 262 6045ft 124kts
31-Jul-20 17:11 34.264827 -118.980599 262 6045ft 124kts
31-Jul-20 17:12 34.261337 -119.022355 262 6044ft 124kts
31-Jul-20 17:13 34.261313 -119.068951 277 5220ft 148kts
31-Jul-20 17:14 34.267119 -119.118279 275 4318ft 149kts
31-Jul-20 17:15 34.271660 -119.165215 275 4054ft 130kts
31-Jul-20 17:16 34.275757 -119.208324 275 4010ft 126kts
31-Jul-20 17:17 34.279580 -119.250393 275 4012ft 125kts
31-Jul-20 17:18 34.283167 -119.292121 275 4013ft 124kts
31-Jul-20 17:19 34.286768 -119.333912 275 4012ft 124kts
31-Jul-20 17:20 34.290492 -119.375660 275 4011ft 125kts
31-Jul-20 17:21 34.294687 -119.417331 276 4018ft 125kts
31-Jul-20 17:22 34.299372 -119.459156 276 4017ft 125kts
31-Jul-20 17:23 34.304230 -119.501059 276 4015ft 126kts
31-Jul-20 17:25 34.315572 -119.541059 290 4012ft 128kts
31-Jul-20 17:26 34.329874 -119.580835 290 4010ft 129kts
31-Jul-20 17:27 34.344393 -119.621050 290 3481ft 129kts
31-Jul-20 17:28 34.358318 -119.659516 290 2569ft 121kts
31-Jul-20 17:29 34.371228 -119.694784 290 2149ft 99kts
31-Jul-20 17:30 34.382848 -119.725036 293 2141ft 98kts
31-Jul-20 17:31 34.395587 -119.753511 294 1597ft 93kts
31-Jul-20 17:32 34.407928 -119.780021 296 1094ft 87kts
31-Jul-20 17:33 34.419863 -119.802714 298 950ft 75kts
31-Jul-20 17:34 34.428307 -119.823855 262 359ft 67kts
31-Jul-20 17:35 34.427742 -119.841878 264 12ft 26kts
31-Jul-20 17:36 34.428432 -119.845590 66 12ft 2kts
31-Jul-20 17:37 34.428448 -119.845545 66 12ft 0kts
31-Jul-20 17:38 34.428449 -119.845544 66 12ft 0kts
31-Jul-20 17:39 34.428449 -119.845544 66 12ft 0kts
31-Jul-20 17:40 34.429006 -119.844141 64 12ft 20kts
31-Jul-20 17:41 34.430292 -119.842811 63 12ft 0kts

Navigation Log

Ident Type
Flight plan parsing failed, navigation log unavailable